Time;durP1;ratioP1;P1;durP2;ratioP2;P2;SDS_P1;SDS_P2;PMS_P1;PMS_P2;Temp;Humidity;BMP_temperature;BMP_pressure;BME280_temperature;BME280_humidity;BME280_pressure;Samples;Min_cycle;Max_cycle;Signal;HPM_P1;HPM_P2
2023/04/06 00:01:10;;;;;;;45.03;33.03;;;9.20;69.70;;;;;;5024662;28;20033;-75
2023/04/06 00:03:36;;;;;;;40.05;31.40;;;9.20;69.90;;;;;;5022116;28;20018;-75
2023/04/06 00:06:02;;;;;;;42.20;32.25;;;9.20;70.00;;;;;;5012462;28;20037;-77
2023/04/06 00:08:28;;;;;;;46.10;33.10;;;9.20;70.00;;;;;;5024176;28;20528;-76
2023/04/06 00:10:54;;;;;;;46.30;34.00;;;9.10;70.00;;;;;;5027333;28;20060;-74
2023/04/06 00:13:20;;;;;;;44.65;31.58;;;9.10;70.30;;;;;;5028758;28;20064;-76
2023/04/06 00:15:45;;;;;;;45.00;33.40;;;9.10;70.50;;;;;;5025577;28;20029;-75
2023/04/06 00:18:11;;;;;;;46.53;33.67;;;9.10;70.50;;;;;;5030142;28;20045;-76
2023/04/06 00:20:40;;;;;;;46.70;34.00;;;9.10;70.70;;;;;;5028985;28;20044;-76
2023/04/06 00:23:06;;;;;;;44.10;33.67;;;9.10;70.80;;;;;;5034759;28;20052;-76
2023/04/06 00:25:31;;;;;;;45.58;32.63;;;9.10;71.00;;;;;;5024282;28;20523;-76
2023/04/06 00:27:57;;;;;;;46.75;33.08;;;9.10;71.10;;;;;;5023855;28;20068;-75
2023/04/06 00:30:23;;;;;;;47.00;33.92;;;9.00;71.20;;;;;;5024077;28;20130;-76
2023/04/06 00:32:48;;;;;;;47.55;35.20;;;9.10;71.30;;;;;;5027429;28;20029;-76
2023/04/06 00:35:15;;;;;;;48.28;33.60;;;9.00;71.30;;;;;;5034978;28;20071;-75
2023/04/06 00:37:41;;;;;;;49.90;35.33;;;9.00;71.40;;;;;;5031504;28;20125;-76
2023/04/06 00:40:07;;;;;;;46.95;33.90;;;9.00;71.50;;;;;;5027946;28;20051;-75
2023/04/06 00:42:33;;;;;;;48.72;34.45;;;8.90;71.50;;;;;;5017421;28;20490;-74
2023/04/06 00:45:01;;;;;;;48.60;35.17;;;9.00;71.60;;;;;;5025183;28;20028;-75
2023/04/06 00:47:27;;;;;;;46.47;34.85;;;8.90;71.50;;;;;;5020951;28;20132;-75
2023/04/06 00:49:54;;;;;;;49.83;35.00;;;9.00;71.50;;;;;;5023494;28;20037;-75
2023/04/06 00:52:21;;;;;;;47.38;33.45;;;8.90;71.40;;;;;;5023746;28;20040;-75
2023/04/06 00:54:46;;;;;;;48.55;33.85;;;8.90;71.60;;;;;;5033449;28;20009;-76
2023/04/06 00:57:13;;;;;;;48.33;34.53;;;8.90;71.60;;;;;;5026381;28;20049;-75
2023/04/06 00:59:40;;;;;;;45.58;34.58;;;8.90;71.60;;;;;;5023106;28;20052;-76
2023/04/06 01:02:06;;;;;;;46.25;33.72;;;8.90;71.60;;;;;;5025538;28;20034;-75
2023/04/06 01:04:32;;;;;;;51.60;35.65;;;8.80;71.60;;;;;;5018379;28;20034;-75
2023/04/06 01:06:58;;;;;;;47.72;34.92;;;8.90;71.70;;;;;;5018619;28;20144;-75
2023/04/06 01:09:24;;;;;;;48.38;35.00;;;8.90;71.70;;;;;;5021857;28;20029;-75
2023/04/06 01:11:50;;;;;;;51.58;35.13;;;8.90;71.80;;;;;;5015621;28;20258;-74
2023/04/06 01:14:16;;;;;;;52.95;36.15;;;8.80;71.80;;;;;;5037627;28;20916;-75
2023/04/06 01:16:42;;;;;;;51.35;35.83;;;8.80;71.80;;;;;;5026595;28;20045;-75
2023/04/06 01:19:09;;;;;;;43.17;32.63;;;8.80;71.80;;;;;;5033906;28;20521;-75
2023/04/06 01:21:39;;;;;;;48.30;34.65;;;8.80;71.90;;;;;;5012208;28;20030;-74
2023/04/06 01:24:06;;;;;;;48.05;33.97;;;8.80;71.90;;;;;;5012260;28;20032;-74
2023/04/06 01:26:32;;;;;;;48.85;34.55;;;8.80;71.90;;;;;;5010254;28;20038;-74
2023/04/06 01:28:58;;;;;;;48.40;35.45;;;8.80;72.00;;;;;;5030368;28;20101;-75
2023/04/06 01:31:24;;;;;;;48.20;32.55;;;8.80;72.00;;;;;;5022051;28;21472;-74
2023/04/06 01:33:50;;;;;;;45.70;33.05;;;8.80;72.10;;;;;;5011699;28;20026;-75
2023/04/06 01:36:16;;;;;;;50.78;36.00;;;8.80;72.10;;;;;;5017628;28;20041;-75
2023/04/06 01:38:42;;;;;;;47.63;34.97;;;8.80;72.20;;;;;;5022211;28;20540;-76
2023/04/06 01:41:08;;;;;;;51.15;36.40;;;8.80;72.20;;;;;;5019275;28;20045;-75
2023/04/06 01:43:34;;;;;;;48.08;35.03;;;8.80;72.00;;;;;;5018618;28;20042;-75
2023/04/06 01:46:00;;;;;;;46.55;34.72;;;8.80;72.00;;;;;;5020541;28;20045;-74
2023/04/06 01:48:27;;;;;;;50.40;36.20;;;8.80;72.10;;;;;;5025274;28;20056;-76
2023/04/06 01:50:53;;;;;;;50.13;36.28;;;8.80;71.90;;;;;;5019930;28;20045;-74
2023/04/06 01:53:19;;;;;;;50.20;34.92;;;8.80;72.00;;;;;;5018299;28;20474;-74
2023/04/06 01:55:45;;;;;;;49.22;34.85;;;8.70;72.00;;;;;;5013884;28;20060;-75
2023/04/06 01:58:11;;;;;;;52.83;37.63;;;8.70;72.00;;;;;;5021207;28;20045;-76
2023/04/06 02:00:36;;;;;;;56.10;36.45;;;8.70;72.00;;;;;;5021042;28;20462;-74
2023/04/06 02:03:02;;;;;;;50.35;36.30;;;8.70;72.00;;;;;;5023725;28;20061;-75
2023/04/06 02:05:30;;;;;;;52.00;35.88;;;8.70;72.00;;;;;;5023723;28;20479;-73
2023/04/06 02:07:56;;;;;;;49.65;35.50;;;8.60;71.90;;;;;;5013825;28;20060;-76
2023/04/06 02:10:23;;;;;;;50.88;35.45;;;8.70;71.90;;;;;;5025012;28;20025;-78
2023/04/06 02:12:49;;;;;;;51.83;37.20;;;8.60;71.90;;;;;;5020732;28;20052;-75
2023/04/06 02:15:15;;;;;;;51.17;34.88;;;8.70;71.80;;;;;;5020596;28;20432;-75
2023/04/06 02:17:42;;;;;;;49.03;36.00;;;8.60;71.80;;;;;;5018404;28;20031;-76
2023/04/06 02:20:08;;;;;;;49.33;34.85;;;8.60;71.70;;;;;;5018574;28;20137;-78
2023/04/06 02:22:35;;;;;;;47.20;34.25;;;8.60;71.80;;;;;;5023946;28;20057;-76
2023/04/06 02:25:01;;;;;;;53.05;36.95;;;8.60;71.70;;;;;;5015013;28;20029;-75
2023/04/06 02:27:27;;;;;;;48.22;33.33;;;8.60;71.80;;;;;;5011237;28;20123;-77
2023/04/06 02:29:52;;;;;;;48.45;34.30;;;8.60;71.80;;;;;;5022574;28;20054;-75
2023/04/06 02:32:18;;;;;;;45.92;32.50;;;8.60;71.70;;;;;;5027494;28;20033;-76
2023/04/06 02:34:44;;;;;;;45.83;31.10;;;8.60;71.60;;;;;;5020386;28;20030;-76
2023/04/06 02:37:09;;;;;;;45.10;30.85;;;8.60;71.60;;;;;;5027336;28;20704;-75
2023/04/06 02:39:35;;;;;;;42.90;30.17;;;8.60;71.60;;;;;;5020451;28;20033;-75
2023/04/06 02:42:01;;;;;;;42.63;29.65;;;8.60;71.50;;;;;;5021793;28;20037;-74
2023/04/06 02:44:27;;;;;;;44.63;31.17;;;8.60;71.60;;;;;;5014099;28;20032;-76
2023/04/06 02:46:52;;;;;;;44.30;31.08;;;8.60;71.80;;;;;;5014830;28;20040;-76
2023/04/06 02:49:18;;;;;;;46.55;31.23;;;8.60;72.00;;;;;;5018007;28;20151;-77
2023/04/06 02:51:44;;;;;;;44.30;31.00;;;8.60;71.90;;;;;;5023064;28;20069;-76
2023/04/06 02:54:10;;;;;;;46.95;31.60;;;8.60;72.00;;;;;;5016629;28;20025;-77
2023/04/06 02:56:35;;;;;;;43.17;29.55;;;8.60;72.10;;;;;;5024796;28;20061;-75
2023/04/06 02:59:01;;;;;;;43.45;30.40;;;8.60;72.20;;;;;;5021313;28;20459;-76
2023/04/06 03:01:27;;;;;;;42.63;28.75;;;8.60;72.50;;;;;;5028984;28;20045;-76
2023/04/06 03:03:52;;;;;;;43.03;30.20;;;8.60;72.70;;;;;;5022524;28;20029;-74
2023/04/06 03:06:18;;;;;;;39.20;28.40;;;8.60;73.20;;;;;;5022789;28;20043;-76
2023/04/06 03:08:44;;;;;;;37.70;26.98;;;8.60;73.30;;;;;;5018898;28;20501;-78
2023/04/06 03:11:10;;;;;;;42.15;28.38;;;8.60;73.40;;;;;;5020852;28;20091;-78
2023/04/06 03:13:38;;;;;;;38.75;28.08;;;8.60;73.60;;;;;;5022622;28;20510;-75
2023/04/06 03:16:07;;;;;;;39.70;28.02;;;8.60;73.70;;;;;;5014096;28;20571;-76
2023/04/06 03:18:32;;;;;;;38.10;28.08;;;8.60;73.70;;;;;;5020201;28;20465;-75
2023/04/06 03:21:00;;;;;;;37.85;26.92;;;8.60;73.80;;;;;;5017646;28;20030;-75
2023/04/06 03:23:25;;;;;;;40.85;27.85;;;8.60;74.00;;;;;;5020270;28;20076;-74
2023/04/06 03:25:51;;;;;;;37.28;26.98;;;8.60;74.10;;;;;;5012644;28;20037;-76
2023/04/06 03:28:17;;;;;;;38.88;27.42;;;8.60;74.30;;;;;;5017365;28;20112;-75
2023/04/06 03:30:43;;;;;;;40.53;28.10;;;8.60;74.30;;;;;;5023177;28;20032;-74
2023/04/06 03:33:08;;;;;;;39.42;28.08;;;8.60;74.50;;;;;;5011290;28;20061;-77
2023/04/06 03:35:34;;;;;;;38.20;26.90;;;8.60;74.70;;;;;;5020525;28;20105;-75
2023/04/06 03:38:00;;;;;;;36.42;26.85;;;8.60;74.80;;;;;;5026766;28;20057;-75
2023/04/06 03:40:25;;;;;;;40.95;28.85;;;8.60;74.90;;;;;;5026355;28;20033;-77
2023/04/06 03:42:51;;;;;;;38.33;28.20;;;8.60;75.00;;;;;;5024736;28;20037;-74
2023/04/06 03:45:17;;;;;;;37.97;26.27;;;8.60;75.00;;;;;;5028619;28;20054;-76
2023/04/06 03:47:43;;;;;;;35.58;25.98;;;8.60;75.20;;;;;;5022131;28;20161;-77
2023/04/06 03:50:09;;;;;;;38.42;27.48;;;8.60;75.40;;;;;;5029696;28;20562;-75
2023/04/06 03:52:36;;;;;;;36.75;25.63;;;8.60;75.40;;;;;;5021498;28;20053;-75
2023/04/06 03:55:02;;;;;;;34.00;25.17;;;8.60;75.60;;;;;;5035600;28;20052;-76
2023/04/06 03:57:27;;;;;;;33.38;25.23;;;8.60;75.80;;;;;;5027379;28;20061;-79
2023/04/06 03:59:53;;;;;;;36.63;25.27;;;8.60;76.10;;;;;;5036408;28;20287;-75
2023/04/06 04:02:19;;;;;;;34.13;24.65;;;8.60;76.10;;;;;;5034932;28;20462;-75
2023/04/06 04:04:45;;;;;;;35.35;25.67;;;8.60;76.20;;;;;;5036003;28;20467;-75
2023/04/06 04:07:10;;;;;;;34.25;25.45;;;8.60;76.40;;;;;;5025106;28;20022;-75
2023/04/06 04:09:37;;;;;;;35.38;25.90;;;8.60;76.50;;;;;;5029313;28;20029;-75
2023/04/06 04:12:03;;;;;;;36.08;25.30;;;8.60;77.00;;;;;;5027021;28;20041;-74
2023/04/06 04:14:29;;;;;;;35.00;24.40;;;8.60;77.20;;;;;;5030285;28;20082;-76
2023/04/06 04:16:54;;;;;;;34.85;24.88;;;8.60;77.30;;;;;;5024729;28;20034;-75
2023/04/06 04:19:20;;;;;;;33.92;25.83;;;8.60;77.40;;;;;;5014317;28;20370;-76
2023/04/06 04:21:46;;;;;;;35.17;25.70;;;8.60;77.70;;;;;;5026991;28;20036;-75
2023/04/06 04:24:13;;;;;;;31.95;24.55;;;8.60;78.00;;;;;;5027339;28;20033;-75
2023/04/06 04:26:39;;;;;;;34.38;26.15;;;8.60;78.40;;;;;;5017240;28;20037;-77
2023/04/06 04:29:05;;;;;;;36.10;26.98;;;8.60;79.20;;;;;;5017624;28;20120;-76
2023/04/06 04:31:31;;;;;;;35.78;26.45;;;8.60;79.90;;;;;;5024541;28;20140;-75
2023/04/06 04:33:58;;;;;;;37.42;28.10;;;8.60;80.00;;;;;;5023535;28;20018;-75
2023/04/06 04:36:25;;;;;;;35.58;25.27;;;8.60;80.80;;;;;;5016673;28;20241;-76
2023/04/06 04:38:51;;;;;;;32.05;23.70;;;8.60;81.10;;;;;;5022657;28;20022;-76
2023/04/06 04:41:17;;;;;;;33.40;25.75;;;8.60;81.70;;;;;;5015702;28;20493;-75
2023/04/06 04:43:43;;;;;;;32.53;23.83;;;8.60;81.90;;;;;;5025854;28;20021;-75
2023/04/06 04:46:09;;;;;;;32.60;24.52;;;8.60;82.00;;;;;;5017774;28;20030;-74
2023/04/06 04:48:35;;;;;;;31.65;23.40;;;8.60;82.40;;;;;;5027852;28;20022;-75
2023/04/06 04:51:01;;;;;;;31.70;23.77;;;8.60;82.40;;;;;;5028912;28;20120;-75
2023/04/06 04:53:27;;;;;;;31.73;23.30;;;8.60;82.70;;;;;;5019699;28;20490;-75
2023/04/06 04:55:52;;;;;;;27.48;21.23;;;8.60;82.60;;;;;;5023924;28;20032;-75
2023/04/06 04:58:19;;;;;;;29.90;23.27;;;8.60;82.70;;;;;;5030965;28;20474;-76
2023/04/06 05:00:45;;;;;;;28.27;22.45;;;8.60;82.90;;;;;;5018543;28;20045;-75
2023/04/06 05:03:20;;;;;;;31.00;23.00;;;8.60;83.10;;;;;;5032219;28;20462;-75
2023/04/06 05:05:46;;;;;;;30.55;22.98;;;8.60;83.20;;;;;;5026425;28;20020;-76
2023/04/06 05:08:12;;;;;;;31.85;22.40;;;8.60;83.40;;;;;;5026214;28;20025;-75
2023/04/06 05:10:38;;;;;;;30.00;22.98;;;8.60;83.50;;;;;;5026379;28;20026;-79
2023/04/06 05:13:04;;;;;;;31.40;22.77;;;8.60;83.70;;;;;;5025588;28;20029;-79
2023/04/06 05:15:30;;;;;;;29.75;22.52;;;8.60;83.70;;;;;;5023911;28;20021;-78
2023/04/06 05:17:55;;;;;;;44.20;29.13;;;8.60;83.80;;;;;;5027580;28;20055;-79
2023/04/06 05:20:21;;;;;;;36.83;25.48;;;8.60;84.00;;;;;;5021821;28;20033;-79
2023/04/06 05:22:47;;;;;;;35.53;25.55;;;8.50;84.20;;;;;;5029821;28;20542;-79
2023/04/06 05:25:13;;;;;;;34.97;26.95;;;8.60;84.30;;;;;;5021622;28;20032;-80
2023/04/06 05:27:40;;;;;;;39.60;27.52;;;8.50;84.60;;;;;;5029644;28;20099;-79
2023/04/06 05:30:07;;;;;;;41.10;28.80;;;8.40;84.70;;;;;;5024325;28;20036;-78
2023/04/06 05:32:33;;;;;;;45.85;27.30;;;8.40;84.60;;;;;;5020497;28;20549;-78
2023/04/06 05:34:59;;;;;;;44.20;28.98;;;8.30;84.80;;;;;;5035170;28;20448;-79
2023/04/06 05:37:25;;;;;;;38.53;27.05;;;8.30;84.70;;;;;;5026309;28;20041;-79
2023/04/06 05:39:51;;;;;;;36.65;28.17;;;8.40;84.80;;;;;;5028884;28;20064;-78
2023/04/06 05:42:17;;;;;;;36.63;26.50;;;8.30;84.80;;;;;;5027586;28;20125;-79
2023/04/06 05:44:42;;;;;;;40.38;26.73;;;8.30;85.00;;;;;;5028906;28;20034;-79
2023/04/06 05:47:08;;;;;;;38.67;25.77;;;8.20;84.80;;;;;;5020361;28;20099;-79
2023/04/06 05:49:34;;;;;;;34.40;23.60;;;8.20;84.70;;;;;;5018805;28;20033;-79
2023/04/06 05:52:00;;;;;;;32.67;22.65;;;8.20;84.60;;;;;;5029783;28;20048;-79
2023/04/06 05:54:26;;;;;;;33.55;22.65;;;8.20;84.40;;;;;;5024036;28;20428;-78
2023/04/06 05:56:52;;;;;;;41.38;23.65;;;8.20;84.50;;;;;;5026077;28;20095;-78
2023/04/06 05:59:17;;;;;;;36.20;23.30;;;8.20;84.50;;;;;;5024395;28;20577;-78
2023/04/06 06:01:43;;;;;;;33.20;23.05;;;8.20;84.70;;;;;;5024428;28;20096;-79
2023/04/06 06:04:09;;;;;;;28.90;20.33;;;8.20;84.50;;;;;;5025316;28;20117;-78
2023/04/06 06:06:35;;;;;;;30.13;21.10;;;8.20;84.50;;;;;;5027001;28;20551;-78
2023/04/06 06:09:03;;;;;;;33.67;21.05;;;8.20;84.30;;;;;;5020966;28;20025;-78
2023/04/06 06:11:29;;;;;;;29.73;20.38;;;8.20;84.50;;;;;;5017929;28;20095;-80
2023/04/06 06:13:55;;;;;;;27.88;20.40;;;8.10;84.50;;;;;;5020295;28;20099;-79
2023/04/06 06:16:21;;;;;;;32.00;22.33;;;8.20;84.70;;;;;;5020334;28;20117;-78
2023/04/06 06:18:47;;;;;;;33.30;21.92;;;8.20;84.70;;;;;;5023010;28;20033;-79
2023/04/06 06:21:12;;;;;;;32.70;22.35;;;8.20;84.60;;;;;;5023291;28;20438;-78
2023/04/06 06:23:39;;;;;;;28.77;20.52;;;8.10;84.30;;;;;;5018151;28;20038;-79
2023/04/06 06:26:05;;;;;;;31.70;22.25;;;8.10;84.70;;;;;;5017508;28;21188;-78
2023/04/06 06:28:31;;;;;;;31.50;21.42;;;8.20;85.10;;;;;;5021551;28;20068;-79
2023/04/06 06:30:56;;;;;;;28.67;20.85;;;8.20;84.90;;;;;;5017602;28;20075;-77
2023/04/06 06:33:22;;;;;;;28.45;19.50;;;8.10;85.10;;;;;;5020732;28;20033;-77
2023/04/06 06:35:48;;;;;;;26.45;19.35;;;8.10;85.10;;;;;;5023471;28;20405;-79
2023/04/06 06:38:14;;;;;;;28.83;19.65;;;8.30;85.20;;;;;;5028641;28;20521;-80
2023/04/06 06:40:40;;;;;;;28.80;18.88;;;8.30;85.30;;;;;;5013715;28;20034;-79
2023/04/06 06:43:06;;;;;;;26.20;19.63;;;8.30;85.00;;;;;;5026157;28;20072;-79
2023/04/06 06:45:33;;;;;;;28.05;18.15;;;8.30;85.10;;;;;;5022906;28;20029;-79
2023/04/06 06:47:58;;;;;;;25.63;17.83;;;8.40;85.10;;;;;;5016080;28;20045;-78
2023/04/06 06:50:24;;;;;;;26.77;16.77;;;8.40;85.00;;;;;;5028682;28;20104;-78
2023/04/06 06:52:50;;;;;;;25.77;16.58;;;8.50;84.70;;;;;;5029403;28;20029;-78
2023/04/06 06:55:16;;;;;;;23.63;15.77;;;8.50;84.80;;;;;;5023493;28;20048;-78
2023/04/06 06:57:46;;;;;;;27.70;17.08;;;8.60;84.80;;;;;;5028411;28;20046;-79
2023/04/06 07:00:13;;;;;;;25.15;16.70;;;8.60;84.90;;;;;;5027860;28;20314;-79
2023/04/06 07:02:39;;;;;;;28.20;18.35;;;8.50;85.00;;;;;;5020275;28;20518;-79
2023/04/06 07:05:05;;;;;;;28.33;18.63;;;8.50;84.90;;;;;;5021738;28;20024;-79
2023/04/06 07:07:33;;;;;;;30.65;18.17;;;8.50;85.00;;;;;;5027985;28;20083;-79
2023/04/06 07:09:59;;;;;;;28.35;18.17;;;8.40;85.10;;;;;;5026133;28;20473;-79
2023/04/06 07:12:25;;;;;;;29.67;17.48;;;8.40;85.40;;;;;;5020048;28;20457;-77
2023/04/06 07:14:50;;;;;;;28.58;17.70;;;8.40;85.20;;;;;;5019893;28;20017;-78
2023/04/06 07:17:16;;;;;;;35.90;20.27;;;8.40;85.40;;;;;;5021442;28;20405;-77
2023/04/06 07:19:42;;;;;;;34.63;20.15;;;8.40;85.40;;;;;;5027769;28;20044;-77
2023/04/06 07:22:08;;;;;;;26.85;16.17;;;8.40;85.70;;;;;;5019717;28;20033;-78
2023/04/06 07:24:34;;;;;;;25.02;16.58;;;8.40;85.80;;;;;;5020876;28;20561;-79
2023/04/06 07:27:00;;;;;;;29.92;17.17;;;8.40;85.90;;;;;;5016189;28;20469;-78
2023/04/06 07:29:27;;;;;;;28.60;16.75;;;8.40;85.80;;;;;;5023962;28;20112;-78
2023/04/06 07:31:53;;;;;;;29.02;17.33;;;8.50;86.00;;;;;;5022189;28;20033;-78
2023/04/06 07:34:19;;;;;;;27.45;17.30;;;8.50;85.80;;;;;;5023139;28;20064;-78
2023/04/06 07:36:45;;;;;;;27.20;17.85;;;8.50;85.80;;;;;;5022926;28;20357;-77
2023/04/06 07:39:10;;;;;;;26.27;15.75;;;8.50;85.70;;;;;;5027005;28;20606;-80
2023/04/06 07:41:36;;;;;;;27.95;15.10;;;8.50;85.90;;;;;;5025356;28;20098;-79
2023/04/06 07:44:03;;;;;;;25.98;16.08;;;8.30;85.80;;;;;;5021328;28;20029;-79
2023/04/06 07:46:28;;;;;;;26.92;17.30;;;8.40;86.30;;;;;;5023216;28;20044;-79
2023/04/06 07:48:55;;;;;;;27.42;16.17;;;8.50;86.30;;;;;;5013525;28;20310;-78
2023/04/06 07:51:21;;;;;;;27.35;17.88;;;8.50;86.30;;;;;;5037209;28;20043;-78
2023/04/06 07:53:47;;;;;;;27.02;17.45;;;8.50;86.50;;;;;;5031491;28;20025;-80
2023/04/06 07:56:13;;;;;;;28.83;16.75;;;8.60;86.50;;;;;;5027048;28;20036;-78
2023/04/06 07:58:39;;;;;;;25.73;17.58;;;8.60;86.60;;;;;;5033097;28;20573;-79
2023/04/06 08:01:05;;;;;;;31.55;17.10;;;8.50;86.50;;;;;;5031630;28;20108;-79
2023/04/06 08:03:33;;;;;;;28.15;17.90;;;8.60;86.80;;;;;;5032362;28;20056;-78
2023/04/06 08:05:58;;;;;;;36.50;18.65;;;8.70;86.60;;;;;;5028181;28;20501;-78
2023/04/06 08:08:24;;;;;;;35.58;19.02;;;8.70;86.30;;;;;;5027042;28;20032;-79
2023/04/06 08:10:50;;;;;;;30.88;17.45;;;8.70;86.40;;;;;;5031047;28;20351;-79
2023/04/06 08:13:16;;;;;;;29.88;18.40;;;8.90;86.60;;;;;;5027442;28;20025;-79
2023/04/06 08:15:42;;;;;;;27.05;18.08;;;8.90;86.20;;;;;;5027027;28;20377;-80
2023/04/06 08:18:08;;;;;;;32.47;18.48;;;8.90;86.10;;;;;;5025394;28;20420;-79
2023/04/06 08:20:35;;;;;;;27.30;16.48;;;8.90;85.90;;;;;;5026343;28;20025;-79
2023/04/06 08:23:01;;;;;;;25.30;17.63;;;8.80;86.10;;;;;;5022672;28;20060;-79
2023/04/06 08:25:27;;;;;;;29.63;18.13;;;8.80;86.20;;;;;;5016741;28;20074;-79
2023/04/06 08:27:52;;;;;;;27.33;18.25;;;8.80;86.30;;;;;;5023075;28;20033;-79
2023/04/06 08:30:19;;;;;;;26.90;18.17;;;8.80;86.30;;;;;;5022753;28;20033;-79
2023/04/06 08:32:45;;;;;;;28.73;19.00;;;8.90;86.30;;;;;;5023031;28;20045;-79
2023/04/06 08:35:11;;;;;;;29.55;19.08;;;8.80;86.60;;;;;;5021011;28;20021;-79
2023/04/06 08:37:37;;;;;;;27.30;18.63;;;8.80;86.50;;;;;;5027711;28;20052;-78
2023/04/06 08:40:04;;;;;;;28.65;20.15;;;8.90;86.60;;;;;;5023509;28;20040;-78
2023/04/06 08:42:33;;;;;;;29.23;20.48;;;9.00;86.80;;;;;;5018341;28;20038;-78
2023/04/06 08:45:00;;;;;;;28.00;20.33;;;9.00;86.70;;;;;;5023705;28;20020;-77
2023/04/06 08:47:27;;;;;;;29.80;20.38;;;9.10;86.50;;;;;;5025234;28;20493;-77
2023/04/06 08:49:54;;;;;;;31.92;20.67;;;9.00;86.50;;;;;;5026988;28;20025;-79
2023/04/06 08:52:20;;;;;;;31.13;21.33;;;9.10;86.80;;;;;;5021427;28;20482;-80
2023/04/06 08:54:46;;;;;;;32.35;22.17;;;9.00;86.60;;;;;;5018572;28;20030;-79
2023/04/06 08:57:13;;;;;;;30.60;21.10;;;8.90;86.90;;;;;;5018260;28;20092;-79
2023/04/06 08:59:40;;;;;;;31.45;22.40;;;9.00;87.00;;;;;;5022464;28;20317;-79
2023/04/06 09:02:08;;;;;;;30.25;21.15;;;8.80;87.00;;;;;;5019819;28;20527;-79
2023/04/06 09:04:35;;;;;;;33.13;21.90;;;9.00;87.30;;;;;;5026331;28;20116;-79
2023/04/06 09:07:01;;;;;;;32.45;21.33;;;9.00;87.10;;;;;;5025618;28;20273;-78
2023/04/06 09:09:27;;;;;;;29.80;21.45;;;9.00;87.00;;;;;;5022491;28;20456;-78
2023/04/06 09:11:52;;;;;;;35.45;23.75;;;9.10;87.00;;;;;;5019617;28;20047;-78
2023/04/06 09:14:37;;;;;;;34.10;23.42;;;9.10;87.10;;;;;;5023140;28;20121;-79
2023/04/06 09:17:03;;;;;;;32.70;22.95;;;9.00;87.40;;;;;;5022223;28;20401;-79
2023/04/06 09:19:29;;;;;;;33.70;23.55;;;9.10;87.60;;;;;;5026279;28;20037;-79
2023/04/06 09:22:06;;;;;;;34.95;22.13;;;9.00;87.90;;;;;;5024838;28;20391;-78
2023/04/06 09:24:45;;;;;;;33.53;23.80;;;9.10;88.10;;;;;;5016797;28;20373;-79
2023/04/06 09:27:11;;;;;;;31.45;23.33;;;9.10;88.20;;;;;;5017425;28;20029;-78
2023/04/06 09:29:37;;;;;;;30.15;22.27;;;9.20;88.20;;;;;;5020307;28;20029;-79
2023/04/06 09:32:04;;;;;;;31.88;22.10;;;9.10;87.90;;;;;;5026288;28;20504;-79
2023/04/06 09:34:31;;;;;;;28.60;21.45;;;9.20;88.20;;;;;;5022620;28;20385;-79
2023/04/06 09:36:56;;;;;;;32.55;21.88;;;9.30;88.10;;;;;;5021813;28;20126;-80
2023/04/06 09:39:25;;;;;;;29.65;21.77;;;9.40;88.00;;;;;;5020472;28;20124;-78
2023/04/06 09:41:52;;;;;;;29.73;20.58;;;9.40;88.20;;;;;;5022361;28;20037;-79
2023/04/06 09:44:19;;;;;;;28.13;20.27;;;9.30;88.20;;;;;;5025405;28;20452;-79
2023/04/06 09:46:46;;;;;;;30.48;21.50;;;9.20;88.10;;;;;;5024739;28;20045;-79
2023/04/06 09:49:13;;;;;;;26.92;20.08;;;9.20;88.30;;;;;;5018676;28;20363;-79
2023/04/06 09:51:47;;;;;;;28.33;20.85;;;9.20;88.40;;;;;;5024791;28;20033;-79
2023/04/06 09:54:18;;;;;;;29.75;21.45;;;9.20;88.40;;;;;;5025344;28;20516;-80
2023/04/06 09:57:02;;;;;;;30.23;21.35;;;9.30;88.70;;;;;;5025339;28;20405;-79
2023/04/06 09:59:37;;;;;;;27.15;21.08;;;9.30;88.70;;;;;;5028117;28;20037;-79
2023/04/06 10:02:07;;;;;;;31.13;21.35;;;9.30;88.80;;;;;;5033557;28;20402;-78
2023/04/06 10:04:39;;;;;;;27.20;20.55;;;9.20;89.00;;;;;;5023869;28;20501;-79
2023/04/06 10:07:06;;;;;;;26.20;21.00;;;9.40;89.10;;;;;;5040357;28;20038;-80
2023/04/06 10:09:35;;;;;;;27.08;21.17;;;9.40;89.00;;;;;;5017938;28;20048;-79
2023/04/06 10:12:07;;;;;;;25.23;19.08;;;9.40;89.10;;;;;;5020019;28;20388;-79
2023/04/06 10:14:37;;;;;;;26.17;18.92;;;9.40;88.90;;;;;;5026261;28;20021;-79
2023/04/06 10:17:04;;;;;;;23.75;19.25;;;9.40;89.20;;;;;;5017904;28;20042;-79
2023/04/06 10:20:16;;;;;;;22.80;19.65;;;9.40;89.20;;;;;;5018432;28;20034;-79
2023/04/06 10:23:05;;;;;;;22.30;17.60;;;9.40;89.30;;;;;;5015673;28;20083;-80
2023/04/06 10:25:32;;;;;;;23.92;18.88;;;9.40;89.40;;;;;;5019992;28;20115;-79
2023/04/06 10:28:01;;;;;;;23.25;17.77;;;9.50;89.60;;;;;;5022033;28;20080;-80
2023/04/06 10:30:28;;;;;;;20.60;16.45;;;9.50;89.40;;;;;;5023242;28;20026;-79
2023/04/06 10:32:54;;;;;;;23.20;16.73;;;9.50;89.60;;;;;;5013325;28;20065;-79
2023/04/06 10:35:20;;;;;;;21.15;16.52;;;9.50;89.60;;;;;;5025045;28;20052;-79
2023/04/06 10:38:04;;;;;;;22.95;16.60;;;9.60;89.70;;;;;;5021822;28;20038;-79
2023/04/06 10:40:31;;;;;;;20.13;14.65;;;9.60;89.60;;;;;;5012520;28;20026;-79
2023/04/06 10:43:11;;;;;;;19.45;15.30;;;9.60;89.50;;;;;;5021277;28;20022;-79
2023/04/06 10:45:37;;;;;;;19.35;14.82;;;9.70;89.60;;;;;;5022762;28;20053;-79
2023/04/06 10:48:14;;;;;;;18.17;13.38;;;9.90;89.50;;;;;;5020803;28;20532;-79
2023/04/06 10:50:45;;;;;;;18.45;14.25;;;9.80;89.30;;;;;;5018177;28;20025;-78
2023/04/06 10:53:11;;;;;;;16.80;12.80;;;9.70;89.10;;;;;;5022890;28;20036;-79
2023/04/06 10:55:40;;;;;;;17.58;12.80;;;9.70;89.30;;;;;;5022102;28;20033;-78
2023/04/06 10:58:09;;;;;;;17.50;13.13;;;9.70;89.60;;;;;;5024658;28;20041;-78
2023/04/06 11:00:43;;;;;;;17.00;13.35;;;9.70;89.70;;;;;;5032762;28;20072;-79
2023/04/06 11:03:09;;;;;;;18.58;13.02;;;9.60;89.70;;;;;;5028146;28;20033;-78
2023/04/06 11:05:35;;;;;;;18.23;13.25;;;9.60;89.80;;;;;;5022941;28;20021;-79
2023/04/06 11:08:01;;;;;;;17.08;12.98;;;9.60;89.80;;;;;;5028237;28;20021;-78
2023/04/06 11:10:26;;;;;;;19.45;14.23;;;9.70;89.70;;;;;;5022318;28;20156;-77
2023/04/06 11:12:56;;;;;;;19.52;14.73;;;9.70;89.60;;;;;;5019182;28;20033;-77
2023/04/06 11:15:22;;;;;;;19.52;15.30;;;9.70;89.70;;;;;;5022445;28;20088;-77
2023/04/06 11:17:49;;;;;;;19.90;16.15;;;9.70;89.90;;;;;;5031186;28;20030;-78
2023/04/06 11:20:15;;;;;;;22.15;17.05;;;9.80;89.70;;;;;;5022213;28;20072;-78
2023/04/06 11:22:51;;;;;;;23.08;17.52;;;9.80;89.40;;;;;;5016021;28;20044;-78
2023/04/06 11:25:18;;;;;;;20.80;16.55;;;9.60;89.50;;;;;;5015563;28;20046;-78
2023/04/06 11:27:45;;;;;;;23.50;17.38;;;9.70;89.80;;;;;;5013681;28;20038;-78
2023/04/06 11:30:11;;;;;;;23.20;17.80;;;9.60;89.70;;;;;;5016027;28;20103;-77
2023/04/06 11:32:44;;;;;;;22.85;18.52;;;9.70;90.10;;;;;;5017196;28;20034;-77
2023/04/06 11:35:23;;;;;;;25.13;18.55;;;9.70;89.80;;;;;;5020923;28;20049;-77
2023/04/06 11:37:52;;;;;;;25.20;18.80;;;9.70;89.90;;;;;;5020723;28;20057;-77
2023/04/06 11:40:22;;;;;;;24.73;19.88;;;9.70;89.90;;;;;;5023998;28;20117;-77
2023/04/06 11:42:55;;;;;;;26.13;20.92;;;9.90;89.90;;;;;;5014561;28;20026;-77
2023/04/06 11:45:21;;;;;;;24.88;19.98;;;9.90;89.70;;;;;;5014084;28;20547;-76
2023/04/06 11:47:57;;;;;;;26.45;20.70;;;9.90;89.40;;;;;;5017404;28;20037;-76
2023/04/06 11:50:23;;;;;;;25.02;20.17;;;9.80;89.40;;;;;;5018298;28;20179;-78
2023/04/06 11:53:02;;;;;;;24.48;20.63;;;9.80;89.40;;;;;;5019073;28;20496;-77
2023/04/06 11:55:28;;;;;;;25.63;20.15;;;9.80;89.40;;;;;;5023991;28;20033;-78
2023/04/06 11:57:54;;;;;;;26.52;21.10;;;9.80;89.60;;;;;;5024346;28;20445;-78
2023/04/06 12:00:21;;;;;;;26.67;21.17;;;9.80;89.90;;;;;;5020961;28;20037;-78
2023/04/06 12:02:48;;;;;;;29.50;24.05;;;9.80;90.00;;;;;;5026007;28;20132;-79
2023/04/06 12:05:14;;;;;;;28.15;21.95;;;10.00;89.80;;;;;;5019567;28;20083;-79
2023/04/06 12:07:40;;;;;;;29.95;23.25;;;10.00;89.90;;;;;;5021506;28;20030;-75
2023/04/06 12:10:06;;;;;;;26.35;21.13;;;10.10;89.80;;;;;;5026691;28;20036;-78
2023/04/06 12:12:31;;;;;;;27.75;22.52;;;10.10;89.80;;;;;;5016688;28;20046;-78
2023/04/06 12:14:58;;;;;;;27.70;22.23;;;10.10;89.80;;;;;;5023847;28;20028;-78
2023/04/06 12:17:24;;;;;;;30.65;21.33;;;10.00;89.90;;;;;;5026138;28;20030;-78
2023/04/06 12:19:50;;;;;;;26.88;21.38;;;10.10;90.00;;;;;;5013098;28;20411;-78
2023/04/06 12:22:17;;;;;;;25.40;20.35;;;10.10;90.00;;;;;;5021659;28;20199;-78
2023/04/06 12:24:43;;;;;;;24.17;20.30;;;10.20;89.80;;;;;;5021891;28;20108;-78
2023/04/06 12:27:10;;;;;;;28.73;21.05;;;10.20;89.60;;;;;;5024347;28;20120;-78
2023/04/06 12:29:36;;;;;;;24.00;19.00;;;10.40;89.60;;;;;;5017284;28;20042;-78
2023/04/06 12:32:02;;;;;;;23.25;17.95;;;10.40;89.40;;;;;;5025002;28;20061;-78
2023/04/06 12:34:28;;;;;;;25.35;19.30;;;10.30;89.60;;;;;;5023041;28;20103;-78